createdAt,value
2022-10-22T00:01:06.740Z,97.56
2022-10-22T00:03:33.332Z,98.13
2022-10-22T00:05:59.899Z,97.69
2022-10-22T00:08:26.679Z,98.49
2022-10-22T00:10:53.398Z,98.71
2022-10-22T00:13:21.352Z,98.53
2022-10-22T00:15:48.890Z,98.02
2022-10-22T00:18:15.484Z,98.38
2022-10-22T00:20:42.211Z,98.28
2022-10-22T00:23:08.794Z,98.06
2022-10-22T00:25:35.891Z,98.29
2022-10-22T00:28:02.868Z,98.25
2022-10-22T00:30:30.748Z,98.09
2022-10-22T00:32:57.317Z,98.41
2022-10-22T00:35:23.896Z,98.33
2022-10-22T00:37:50.480Z,98.10
2022-10-22T00:40:17.101Z,98.64
2022-10-22T00:42:43.970Z,98.99
2022-10-22T00:45:18.730Z,98.71
2022-10-22T00:47:50.577Z,98.62
2022-10-22T00:50:19.239Z,98.90
2022-10-22T00:52:46.828Z,99.13
2022-10-22T00:55:14.243Z,98.92
2022-10-22T00:57:41.211Z,98.69
2022-10-22T01:00:10.020Z,99.44
2022-10-22T01:02:36.727Z,99.19
2022-10-22T01:05:05.298Z,98.87
2022-10-22T01:07:38.249Z,98.95
2022-10-22T01:10:10.692Z,99.35
2022-10-22T01:12:46.307Z,99.49
2022-10-22T01:15:22.423Z,99.41
2022-10-22T01:17:58.310Z,99.31
2022-10-22T01:20:46.657Z,99.37
2022-10-22T01:23:24.258Z,98.79
2022-10-22T01:25:58.511Z,98.62
2022-10-22T01:28:43.836Z,100.00
2022-10-22T01:31:13.495Z,99.36
2022-10-22T01:33:40.767Z,99.45
2022-10-22T01:36:08.860Z,100.00
2022-10-22T01:38:36.404Z,100.00
2022-10-22T01:41:03.128Z,100.00
2022-10-22T01:43:29.639Z,100.00
2022-10-22T01:46:01.367Z,100.00
2022-10-22T01:48:40.336Z,100.00
2022-10-22T01:51:22.390Z,100.00
2022-10-22T01:53:52.828Z,100.00
2022-10-22T01:56:36.324Z,100.00
2022-10-22T01:59:07.995Z,100.00
2022-10-22T02:01:46.312Z,100.00
2022-10-22T02:04:19.057Z,100.00
2022-10-22T02:06:47.848Z,100.00
2022-10-22T02:09:16.408Z,100.00
2022-10-22T02:11:44.590Z,100.00
2022-10-22T02:14:12.621Z,100.00
2022-10-22T02:16:44.324Z,100.00
2022-10-22T02:19:19.267Z,100.00
2022-10-22T02:21:45.998Z,100.00
2022-10-22T02:24:13.143Z,100.00
2022-10-22T02:26:46.292Z,100.00
2022-10-22T02:29:18.699Z,100.00
2022-10-22T02:31:48.826Z,100.00
2022-10-22T02:34:21.612Z,100.00
2022-10-22T02:36:50.522Z,100.00
2022-10-22T02:39:19.094Z,100.00
2022-10-22T02:41:45.723Z,100.00
2022-10-22T02:44:12.263Z,100.00
2022-10-22T02:46:40.141Z,100.00
2022-10-22T02:49:08.153Z,100.00
2022-10-22T02:51:34.770Z,100.00
2022-10-22T02:54:01.384Z,100.00
2022-10-22T02:56:27.946Z,100.00
2022-10-22T02:58:54.477Z,100.00
2022-10-22T03:01:21.338Z,100.00
2022-10-22T03:03:47.943Z,100.00
2022-10-22T03:06:16.261Z,100.00
2022-10-22T03:08:42.929Z,100.00
2022-10-22T03:11:09.617Z,100.00
2022-10-22T03:13:36.345Z,100.00
2022-10-22T03:16:02.926Z,100.00
2022-10-22T03:18:29.454Z,100.00
2022-10-22T03:21:07.780Z,100.00
2022-10-22T03:23:36.336Z,100.00
2022-10-22T03:26:04.367Z,100.00
2022-10-22T03:28:30.948Z,100.00
2022-10-22T03:30:57.504Z,100.00
2022-10-22T03:33:24.051Z,100.00
2022-10-22T03:35:50.754Z,100.00
2022-10-22T03:38:17.360Z,100.00
2022-10-22T03:40:46.401Z,100.00
2022-10-22T03:43:13.407Z,100.00
2022-10-22T03:45:39.996Z,100.00
2022-10-22T03:48:06.746Z,100.00
2022-10-22T03:50:33.427Z,100.00
2022-10-22T03:52:59.997Z,100.00
2022-10-22T03:55:26.731Z,100.00
2022-10-22T03:57:54.615Z,100.00
2022-10-22T04:00:21.429Z,100.00
2022-10-22T04:02:47.985Z,100.00
2022-10-22T04:07:46.185Z,100.00
2022-10-22T04:10:12.739Z,100.00
2022-10-22T04:12:39.303Z,100.00
2022-10-22T04:15:08.899Z,100.00
2022-10-22T04:17:36.151Z,100.00
2022-10-22T04:20:04.816Z,100.00
2022-10-22T04:22:33.661Z,100.00
2022-10-22T04:25:00.306Z,100.00
2022-10-22T04:27:30.573Z,100.00
2022-10-22T04:29:57.181Z,100.00
2022-10-22T04:32:25.205Z,100.00
2022-10-22T04:34:51.809Z,100.00
2022-10-22T04:37:18.388Z,100.00
2022-10-22T04:39:44.935Z,100.00
2022-10-22T04:42:11.564Z,100.00
2022-10-22T04:44:38.249Z,100.00
2022-10-22T04:47:04.885Z,100.00
2022-10-22T04:49:32.815Z,100.00
2022-10-22T04:51:59.383Z,100.00
2022-10-22T04:54:29.057Z,100.00
2022-10-22T04:56:58.897Z,100.00
2022-10-22T04:59:25.470Z,100.00
2022-10-22T05:01:52.021Z,100.00
2022-10-22T05:04:18.599Z,100.00
2022-10-22T05:06:46.937Z,100.00
2022-10-22T05:09:16.558Z,100.00
2022-10-22T05:11:44.817Z,100.00
2022-10-22T05:14:11.970Z,100.00
2022-10-22T05:16:38.820Z,100.00
2022-10-22T05:19:07.032Z,100.00
2022-10-22T05:21:34.588Z,100.00
2022-10-22T05:24:02.517Z,100.00
2022-10-22T05:26:29.832Z,100.00
2022-10-22T05:28:56.636Z,100.00
2022-10-22T05:31:23.736Z,100.00
2022-10-22T05:33:50.271Z,100.00
2022-10-22T05:36:19.334Z,100.00
2022-10-22T05:38:46.108Z,100.00
2022-10-22T05:41:15.397Z,100.00
2022-10-22T05:43:42.062Z,100.00
2022-10-22T05:46:10.223Z,100.00
2022-10-22T05:48:36.852Z,100.00
2022-10-22T05:51:04.537Z,100.00
2022-10-22T05:53:32.016Z,100.00
2022-10-22T05:56:00.953Z,100.00
2022-10-22T05:58:29.071Z,100.00
2022-10-22T06:01:00.507Z,100.00
2022-10-22T06:03:27.068Z,100.00
2022-10-22T06:05:54.154Z,100.00
2022-10-22T06:08:20.797Z,100.00
2022-10-22T06:10:47.387Z,100.00
2022-10-22T06:13:13.913Z,100.00
2022-10-22T06:15:41.784Z,100.00
2022-10-22T06:18:08.314Z,100.00
2022-10-22T06:20:35.283Z,100.00
2022-10-22T06:23:01.837Z,100.00
2022-10-22T06:25:28.404Z,100.00
2022-10-22T06:27:54.947Z,100.00
2022-10-22T06:30:21.491Z,100.00
2022-10-22T06:32:49.362Z,100.00
2022-10-22T06:35:16.084Z,100.00
2022-10-22T06:37:43.011Z,100.00
2022-10-22T06:40:10.874Z,100.00
2022-10-22T06:42:37.424Z,100.00
2022-10-22T06:45:05.266Z,100.00
2022-10-22T06:47:31.846Z,100.00
2022-10-22T06:49:59.723Z,100.00
2022-10-22T06:52:26.268Z,100.00
2022-10-22T06:54:52.837Z,100.00
2022-10-22T06:57:19.389Z,100.00
2022-10-22T06:59:46.396Z,100.00
2022-10-22T07:02:13.370Z,100.00
2022-10-22T07:04:39.913Z,100.00
2022-10-22T07:07:07.825Z,100.00
2022-10-22T07:09:34.353Z,100.00
2022-10-22T07:12:00.929Z,100.00
2022-10-22T07:14:27.442Z,100.00
2022-10-22T07:16:54.140Z,100.00
2022-10-22T07:19:20.689Z,100.00
2022-10-22T07:21:47.243Z,99.65
2022-10-22T07:24:15.142Z,99.79
2022-10-22T07:26:41.732Z,100.00
2022-10-22T07:29:08.295Z,100.00
2022-10-22T07:31:34.854Z,99.79
2022-10-22T07:34:01.447Z,100.00
2022-10-22T07:36:28.006Z,99.49
2022-10-22T07:38:56.479Z,99.52
2022-10-22T07:41:24.862Z,100.00
2022-10-22T07:43:51.450Z,100.00
2022-10-22T07:46:18.268Z,100.00
2022-10-22T07:48:44.831Z,100.00
2022-10-22T07:51:11.474Z,100.00
2022-10-22T07:53:38.231Z,100.00
2022-10-22T07:56:05.173Z,100.00
2022-10-22T07:58:33.367Z,100.00
2022-10-22T08:01:02.030Z,100.00
2022-10-22T08:03:29.265Z,100.00
2022-10-22T08:05:56.239Z,100.00
2022-10-22T08:08:25.834Z,99.99
2022-10-22T08:10:57.713Z,99.94
2022-10-22T08:13:24.260Z,100.00
2022-10-22T08:15:53.680Z,100.00
2022-10-22T08:18:23.135Z,99.89
2022-10-22T08:20:49.717Z,100.00
2022-10-22T08:23:16.251Z,100.00
2022-10-22T08:25:42.824Z,100.00
2022-10-22T08:28:09.818Z,100.00
2022-10-22T08:30:36.840Z,99.60
2022-10-22T08:33:05.084Z,100.00
2022-10-22T08:35:31.821Z,100.00
2022-10-22T08:37:58.411Z,100.00
2022-10-22T08:40:30.367Z,99.69
2022-10-22T08:43:18.254Z,99.73
2022-10-22T08:45:56.014Z,100.00
2022-10-22T08:48:34.434Z,100.00
2022-10-22T08:51:01.110Z,100.00
2022-10-22T08:53:34.287Z,100.00
2022-10-22T08:56:00.866Z,100.00
2022-10-22T08:58:35.755Z,100.00
2022-10-22T09:01:07.349Z,99.44
2022-10-22T09:03:45.997Z,99.09
2022-10-22T09:06:15.609Z,98.98
2022-10-22T09:08:44.726Z,98.93
2022-10-22T09:11:19.827Z,97.78
2022-10-22T09:13:47.833Z,97.08
2022-10-22T09:16:18.111Z,96.40
2022-10-22T09:18:57.132Z,96.01
2022-10-22T09:21:33.851Z,94.09
2022-10-22T09:24:04.928Z,95.65
2022-10-22T09:26:34.074Z,95.62
2022-10-22T09:29:01.259Z,97.10
2022-10-22T09:31:31.194Z,96.04
2022-10-22T09:34:00.213Z,94.90
2022-10-22T09:36:29.198Z,95.99
2022-10-22T09:38:55.955Z,96.31
2022-10-22T09:41:25.604Z,96.48
2022-10-22T09:43:52.181Z,95.53
2022-10-22T09:46:20.755Z,93.92
2022-10-22T09:48:50.093Z,94.08
2022-10-22T09:51:21.797Z,93.12
2022-10-22T09:53:56.360Z,94.48
2022-10-22T09:56:26.497Z,95.71
2022-10-22T09:58:55.559Z,94.99
2022-10-22T10:01:25.679Z,94.66
2022-10-22T10:03:53.146Z,92.89
2022-10-22T10:06:22.968Z,94.36
2022-10-22T10:08:50.237Z,93.63
2022-10-22T10:11:28.950Z,93.21
2022-10-22T10:14:08.476Z,92.51
2022-10-22T10:16:55.560Z,93.55
2022-10-22T10:19:41.759Z,93.31
2022-10-22T10:22:21.704Z,92.80
2022-10-22T10:24:59.146Z,93.21
2022-10-22T10:27:29.977Z,89.78
2022-10-22T10:30:03.945Z,91.85
2022-10-22T10:32:51.588Z,90.72
2022-10-22T10:35:25.323Z,89.64
2022-10-22T10:38:09.152Z,88.77
2022-10-22T10:40:44.907Z,88.51
2022-10-22T10:43:17.829Z,88.08
2022-10-22T10:45:57.441Z,88.28
2022-10-22T10:48:40.631Z,87.06
2022-10-22T10:51:21.956Z,86.21
2022-10-22T10:54:01.291Z,86.11
2022-10-22T10:56:39.092Z,85.37
2022-10-22T10:59:18.079Z,84.71
2022-10-22T11:01:59.474Z,83.70
2022-10-22T11:05:02.270Z,85.31
2022-10-22T11:07:36.586Z,85.31
2022-10-22T11:10:09.694Z,84.57
2022-10-22T11:12:42.414Z,85.05
2022-10-22T11:15:19.115Z,84.92
2022-10-22T11:17:48.177Z,83.70
2022-10-22T11:20:19.370Z,83.44
2022-10-22T11:23:17.519Z,83.00
2022-10-22T11:25:43.381Z,82.45
2022-10-22T11:28:17.244Z,82.58
2022-10-22T11:30:48.667Z,80.65
2022-10-22T11:33:19.133Z,78.67
2022-10-22T11:35:47.028Z,78.45
2022-10-22T11:38:17.358Z,79.16
2022-10-22T11:40:47.542Z,79.70
2022-10-22T11:43:27.196Z,79.39
2022-10-22T11:46:00.574Z,79.73
2022-10-22T11:48:34.313Z,80.17
2022-10-22T11:51:01.990Z,80.04
2022-10-22T11:53:33.073Z,79.17
2022-10-22T11:56:22.059Z,80.02
2022-10-22T11:58:52.251Z,80.92
2022-10-22T12:01:27.371Z,80.14
2022-10-22T12:04:22.295Z,80.03
2022-10-22T12:07:00.553Z,79.67
2022-10-22T12:09:30.653Z,78.53
2022-10-22T12:12:04.311Z,78.45
2022-10-22T12:14:34.459Z,77.38
2022-10-22T12:17:08.334Z,76.80
2022-10-22T12:19:37.930Z,77.36
2022-10-22T12:22:14.789Z,76.53
2022-10-22T12:24:46.004Z,75.98
2022-10-22T12:27:22.221Z,76.01
2022-10-22T12:29:54.648Z,77.05
2022-10-22T12:32:21.305Z,75.66
2022-10-22T12:37:17.538Z,77.03
2022-10-22T12:39:46.788Z,76.62
2022-10-22T12:42:15.062Z,77.37
2022-10-22T12:44:43.372Z,76.45
2022-10-22T12:47:15.478Z,76.51
2022-10-22T12:49:44.505Z,77.38
2022-10-22T12:52:14.664Z,77.01
2022-10-22T12:54:41.669Z,77.53
2022-10-22T12:57:14.663Z,76.58
2022-10-22T12:59:47.231Z,76.94
2022-10-22T13:02:19.769Z,76.62
2022-10-22T13:05:13.747Z,78.63
2022-10-22T13:07:43.632Z,77.86
2022-10-22T13:10:18.788Z,76.06
2022-10-22T13:12:50.224Z,75.70
2022-10-22T13:15:23.028Z,75.82
2022-10-22T13:17:49.738Z,75.31
2022-10-22T13:20:19.643Z,75.18
2022-10-22T13:22:58.346Z,74.96
2022-10-22T13:25:27.271Z,74.00
2022-10-22T13:27:57.377Z,72.32
2022-10-22T13:30:25.895Z,71.94
2022-10-22T13:32:54.791Z,71.06
2022-10-22T13:35:24.384Z,70.85
2022-10-22T13:37:50.939Z,71.17
2022-10-22T13:40:18.003Z,71.89
2022-10-22T13:42:44.842Z,72.43
2022-10-22T13:45:13.576Z,72.68
2022-10-22T13:47:40.968Z,73.21
2022-10-22T13:50:13.756Z,72.84
2022-10-22T13:52:43.722Z,74.12
2022-10-22T13:55:16.568Z,74.68
2022-10-22T13:57:43.367Z,74.85
2022-10-22T14:00:15.061Z,75.23
2022-10-22T14:02:42.079Z,76.81
2022-10-22T14:05:10.131Z,77.29
2022-10-22T14:07:37.423Z,78.12
2022-10-22T14:10:13.453Z,75.68
2022-10-22T14:12:40.027Z,74.68
2022-10-22T14:15:07.873Z,74.62
2022-10-22T14:17:35.836Z,75.92
2022-10-22T14:20:02.403Z,76.04
2022-10-22T14:22:30.483Z,76.36
2022-10-22T14:24:57.112Z,76.88
2022-10-22T14:27:23.676Z,77.91
2022-10-22T14:29:50.234Z,79.29
2022-10-22T14:32:18.835Z,81.14
2022-10-22T14:34:47.527Z,81.83
2022-10-22T14:37:16.856Z,82.99
2022-10-22T14:39:43.707Z,83.14
2022-10-22T14:42:11.345Z,83.44
2022-10-22T14:44:37.931Z,82.68
2022-10-22T14:47:04.658Z,84.18
2022-10-22T14:49:31.217Z,84.92
2022-10-22T14:51:59.340Z,86.13
2022-10-22T14:54:26.121Z,83.97
2022-10-22T14:56:52.671Z,82.62
2022-10-22T14:59:19.229Z,82.04
2022-10-22T15:01:45.820Z,82.08
2022-10-22T15:04:12.402Z,79.10
2022-10-22T15:06:38.979Z,78.47
2022-10-22T15:09:06.945Z,79.39
2022-10-22T15:11:33.568Z,78.43
2022-10-22T15:14:00.117Z,78.17
2022-10-22T15:16:26.690Z,78.22
2022-10-22T15:18:53.278Z,79.29
2022-10-22T15:21:21.947Z,79.77
2022-10-22T15:23:49.266Z,80.82
2022-10-22T15:26:17.373Z,81.71
2022-10-22T15:28:43.933Z,82.58
2022-10-22T15:31:13.502Z,83.10
2022-10-22T15:33:41.417Z,83.73
2022-10-22T15:36:12.364Z,84.26
2022-10-22T15:38:39.245Z,85.49
2022-10-22T15:41:07.656Z,85.75
2022-10-22T15:43:35.940Z,86.59
2022-10-22T15:46:10.989Z,86.68
2022-10-22T15:48:37.583Z,88.54
2022-10-22T15:51:08.644Z,89.90
2022-10-22T15:53:35.231Z,90.72
2022-10-22T15:56:01.838Z,91.17
2022-10-22T15:58:28.394Z,91.38
2022-10-22T16:01:03.116Z,92.06
2022-10-22T16:06:02.099Z,93.51
2022-10-22T16:08:28.719Z,93.65
2022-10-22T16:10:55.326Z,93.81
2022-10-22T16:13:22.610Z,93.64
2022-10-22T16:15:49.321Z,93.96
2022-10-22T16:18:17.337Z,93.39
2022-10-22T16:20:44.046Z,92.93
2022-10-22T16:23:10.713Z,92.50
2022-10-22T16:25:38.318Z,93.18
2022-10-22T16:28:05.492Z,93.99
2022-10-22T16:30:32.836Z,94.55
2022-10-22T16:32:59.417Z,94.56
2022-10-22T16:35:28.343Z,95.41
2022-10-22T16:37:54.909Z,96.38
2022-10-22T16:40:21.677Z,97.24
2022-10-22T16:42:48.276Z,97.51
2022-10-22T16:47:46.788Z,97.96
2022-10-22T16:50:13.442Z,98.10
2022-10-22T16:52:41.510Z,97.83
2022-10-22T16:55:08.992Z,97.80
2022-10-22T16:57:35.745Z,97.62
2022-10-22T17:00:02.384Z,97.70
2022-10-22T17:02:28.955Z,98.54
2022-10-22T17:04:55.527Z,98.52
2022-10-22T17:07:22.117Z,99.17
2022-10-22T17:09:50.043Z,99.67
2022-10-22T17:12:16.749Z,99.73
2022-10-22T17:14:43.309Z,98.79
2022-10-22T17:17:09.876Z,98.54
2022-10-22T17:19:36.437Z,98.71
2022-10-22T17:22:02.993Z,99.41
2022-10-22T17:24:29.523Z,99.13
2022-10-22T17:26:57.513Z,99.76
2022-10-22T17:29:24.068Z,100.00
2022-10-22T17:31:50.687Z,100.00
2022-10-22T17:34:17.426Z,100.00
2022-10-22T17:36:44.605Z,100.00
2022-10-22T17:39:16.183Z,100.00
2022-10-22T17:41:42.757Z,100.00
2022-10-22T17:44:17.036Z,100.00
2022-10-22T17:46:43.865Z,100.00
2022-10-22T17:49:15.786Z,99.90
2022-10-22T17:51:42.164Z,100.00
2022-10-22T17:54:10.076Z,100.00
2022-10-22T17:56:37.717Z,100.00
2022-10-22T17:59:04.300Z,100.00
2022-10-22T18:01:35.123Z,100.00
2022-10-22T18:04:03.573Z,100.00
2022-10-22T18:06:30.983Z,100.00
2022-10-22T18:08:57.829Z,100.00
2022-10-22T18:11:27.022Z,100.00
2022-10-22T18:13:56.003Z,100.00
2022-10-22T18:16:22.767Z,100.00
2022-10-22T18:18:52.683Z,100.00
2022-10-22T18:21:20.352Z,100.00
2022-10-22T18:23:47.088Z,100.00
2022-10-22T18:26:14.055Z,100.00
2022-10-22T18:28:40.987Z,100.00
2022-10-22T18:31:09.170Z,100.00
2022-10-22T18:33:36.506Z,100.00
2022-10-22T18:36:06.816Z,100.00
2022-10-22T18:38:33.498Z,100.00
2022-10-22T18:41:00.085Z,100.00
2022-10-22T18:43:26.723Z,100.00
2022-10-22T18:45:53.284Z,100.00
2022-10-22T18:48:20.780Z,100.00
2022-10-22T18:50:47.394Z,100.00
2022-10-22T18:53:16.740Z,100.00
2022-10-22T18:55:43.505Z,100.00
2022-10-22T18:58:10.042Z,100.00
2022-10-22T19:00:36.618Z,100.00
2022-10-22T19:03:03.300Z,100.00
2022-10-22T19:05:29.968Z,100.00
2022-10-22T19:07:56.543Z,100.00
2022-10-22T19:10:24.471Z,100.00
2022-10-22T19:12:51.068Z,100.00
2022-10-22T19:15:17.886Z,100.00
2022-10-22T19:17:44.671Z,100.00
2022-10-22T19:20:11.457Z,100.00
2022-10-22T19:22:38.038Z,100.00
2022-10-22T19:25:07.110Z,100.00
2022-10-22T19:27:37.616Z,100.00
2022-10-22T19:30:04.607Z,100.00
2022-10-22T19:32:31.366Z,100.00
2022-10-22T19:34:57.985Z,100.00
2022-10-22T19:37:24.651Z,100.00
2022-10-22T19:39:51.442Z,100.00
2022-10-22T19:42:18.002Z,100.00
2022-10-22T19:44:45.949Z,100.00
2022-10-22T19:47:12.528Z,100.00
2022-10-22T19:49:39.068Z,100.00
2022-10-22T19:52:05.722Z,100.00
2022-10-22T19:54:32.261Z,100.00
2022-10-22T19:56:58.932Z,100.00
2022-10-22T19:59:28.552Z,100.00
2022-10-22T20:01:59.329Z,100.00
2022-10-22T20:04:26.025Z,100.00
2022-10-22T20:06:52.592Z,100.00
2022-10-22T20:09:19.159Z,100.00
2022-10-22T20:11:45.882Z,100.00
2022-10-22T20:14:13.003Z,100.00
2022-10-22T20:16:40.503Z,100.00
2022-10-22T20:19:10.293Z,100.00
2022-10-22T20:21:36.981Z,100.00
2022-10-22T20:24:04.341Z,100.00
2022-10-22T20:26:30.937Z,100.00
2022-10-22T20:28:58.142Z,100.00
2022-10-22T20:31:26.384Z,100.00
2022-10-22T20:33:55.142Z,100.00
2022-10-22T20:36:23.982Z,100.00
2022-10-22T20:38:51.575Z,100.00
2022-10-22T20:41:20.776Z,100.00
2022-10-22T20:43:49.317Z,100.00
2022-10-22T20:46:18.723Z,100.00
2022-10-22T20:48:45.661Z,100.00
2022-10-22T20:51:12.964Z,100.00
2022-10-22T20:53:40.876Z,100.00
2022-10-22T20:56:08.097Z,100.00
2022-10-22T20:58:35.515Z,100.00
2022-10-22T21:01:02.143Z,100.00
2022-10-22T21:03:28.729Z,100.00
2022-10-22T21:05:55.374Z,100.00
2022-10-22T21:08:21.934Z,100.00
2022-10-22T21:10:49.885Z,100.00
2022-10-22T21:13:16.849Z,100.00
2022-10-22T21:15:43.463Z,99.80
2022-10-22T21:18:10.036Z,99.68
2022-10-22T21:20:38.274Z,99.25
2022-10-22T21:23:05.017Z,99.10
2022-10-22T21:25:31.631Z,98.75
2022-10-22T21:27:59.535Z,98.86
2022-10-22T21:30:26.200Z,98.87
2022-10-22T21:32:52.777Z,98.65
2022-10-22T21:35:19.369Z,98.47
2022-10-22T21:37:45.907Z,98.61
2022-10-22T21:40:12.719Z,99.67
2022-10-22T21:42:39.373Z,100.00
2022-10-22T21:45:12.184Z,100.00
2022-10-22T21:47:41.140Z,100.00
2022-10-22T21:50:08.508Z,100.00
2022-10-22T21:52:35.092Z,100.00
2022-10-22T21:55:01.657Z,100.00
2022-10-22T21:57:28.220Z,100.00
2022-10-22T21:59:54.796Z,100.00
2022-10-22T22:02:22.732Z,100.00
2022-10-22T22:04:49.286Z,100.00
2022-10-22T22:07:15.963Z,100.00
2022-10-22T22:09:42.518Z,100.00
2022-10-22T22:12:09.073Z,100.00
2022-10-22T22:14:35.648Z,100.00
2022-10-22T22:17:02.225Z,100.00
2022-10-22T22:19:30.156Z,100.00
2022-10-22T22:21:56.743Z,100.00
2022-10-22T22:24:23.342Z,100.00
2022-10-22T22:26:49.915Z,100.00
2022-10-22T22:29:16.482Z,99.91
2022-10-22T22:31:43.057Z,100.00
2022-10-22T22:34:12.524Z,100.00
2022-10-22T22:36:42.085Z,100.00
2022-10-22T22:39:11.704Z,100.00
2022-10-22T22:41:38.345Z,100.00
2022-10-22T22:44:05.610Z,100.00
2022-10-22T22:46:32.233Z,99.58
2022-10-22T22:48:58.857Z,99.87
2022-10-22T22:51:25.484Z,99.67
2022-10-22T22:53:53.476Z,99.34
2022-10-22T22:56:21.722Z,99.48
2022-10-22T22:58:48.724Z,99.36
2022-10-22T23:01:17.764Z,99.64
2022-10-22T23:03:45.195Z,99.52
2022-10-22T23:06:13.137Z,99.36
2022-10-22T23:08:39.927Z,99.26
2022-10-22T23:11:10.631Z,99.24
2022-10-22T23:13:38.432Z,99.36
2022-10-22T23:16:06.457Z,99.52
2022-10-22T23:18:33.058Z,99.44
2022-10-22T23:21:03.843Z,99.45
2022-10-22T23:23:30.415Z,99.45
2022-10-22T23:28:29.992Z,99.65
2022-10-22T23:30:56.562Z,99.52
2022-10-22T23:33:23.113Z,99.56
2022-10-22T23:35:49.660Z,99.54
2022-10-22T23:38:16.212Z,99.07
2022-10-22T23:40:42.815Z,99.11
2022-10-22T23:43:09.344Z,99.17
2022-10-22T23:45:37.302Z,99.27
2022-10-22T23:48:04.221Z,99.14
2022-10-22T23:50:30.803Z,99.52
2022-10-22T23:52:57.377Z,99.90
2022-10-22T23:55:24.054Z,99.76
2022-10-22T23:57:50.650Z,99.83
